createdAt,value
2023-11-05T00:00:44.918Z,94831.50
2023-11-05T00:03:48.504Z,94834.91
2023-11-05T00:06:53.458Z,94845.94
2023-11-05T00:09:56.968Z,94831.41
2023-11-05T00:13:00.490Z,94827.59
2023-11-05T00:16:04.247Z,94816.31
2023-11-05T00:19:10.932Z,94803.31
2023-11-05T00:22:15.912Z,94792.66
2023-11-05T00:25:19.598Z,94807.16
2023-11-05T00:28:23.335Z,94811.03
2023-11-05T00:31:27.257Z,94813.03
2023-11-05T00:34:31.001Z,94811.03
2023-11-05T00:37:36.442Z,94802.94
2023-11-05T00:40:40.172Z,94787.34
2023-11-05T00:43:43.708Z,94788.38
2023-11-05T00:46:47.306Z,94787.72
2023-11-05T00:49:51.597Z,94793.56
2023-11-05T00:52:56.558Z,94784.75
2023-11-05T00:56:00.798Z,94792.69
2023-11-05T00:59:04.562Z,94788.03
2023-11-05T01:02:08.336Z,94789.59
2023-11-05T01:05:12.024Z,94785.38
2023-11-05T01:08:19.217Z,94787.31
2023-11-05T01:11:23.382Z,94750.13
2023-11-05T01:14:27.295Z,94775.47
2023-11-05T01:17:30.906Z,94784.66
2023-11-05T01:20:34.503Z,94776.66
2023-11-05T01:23:45.148Z,94771.81
2023-11-05T01:27:21.125Z,94784.81
2023-11-05T01:30:41.842Z,94776.09
2023-11-05T01:34:15.256Z,94744.56
2023-11-05T01:37:26.947Z,94772.69
2023-11-05T01:40:57.201Z,94762.00
2023-11-05T01:44:53.785Z,94763.63
2023-11-05T01:51:57.039Z,94733.25
2023-11-05T01:55:40.226Z,94738.94
2023-11-05T02:08:30.275Z,94707.59
2023-11-05T02:12:36.128Z,94696.47
2023-11-05T02:16:24.071Z,94608.75
2023-11-05T02:19:44.724Z,94680.94
2023-11-05T02:23:39.082Z,94743.19
2023-11-05T02:27:25.420Z,94718.22
2023-11-05T02:30:49.373Z,94682.84
2023-11-05T02:33:54.067Z,94722.88
2023-11-05T02:36:57.520Z,94713.66
2023-11-05T02:40:02.393Z,94718.38
2023-11-05T02:43:06.029Z,94711.09
2023-11-05T02:46:09.753Z,94717.13
2023-11-05T02:49:13.465Z,94705.28
2023-11-05T02:52:17.311Z,94694.78
2023-11-05T02:55:22.787Z,94680.66
2023-11-05T02:58:26.272Z,94696.44
2023-11-05T03:01:30.822Z,94684.22
2023-11-05T03:04:34.593Z,94682.28
2023-11-05T03:07:38.250Z,94678.59
2023-11-05T03:10:43.254Z,94671.66
2023-11-05T03:13:46.896Z,94668.09
2023-11-05T03:16:51.917Z,94675.69
2023-11-05T03:19:55.824Z,94664.03
2023-11-05T03:22:59.315Z,94659.38
2023-11-05T03:26:04.380Z,94657.75
2023-11-05T03:29:07.993Z,94645.50
2023-11-05T03:32:11.623Z,94641.88
2023-11-05T03:35:15.266Z,94645.56
2023-11-05T03:38:18.938Z,94646.44
2023-11-05T03:41:23.855Z,94653.75
2023-11-05T03:44:28.832Z,94659.06
2023-11-05T03:47:32.484Z,94646.38
2023-11-05T03:50:36.104Z,94642.50
2023-11-05T03:53:40.204Z,94639.63
2023-11-05T03:56:52.070Z,94626.72
2023-11-05T03:59:55.696Z,94633.66
2023-11-05T04:02:59.708Z,94620.66
2023-11-05T04:06:03.246Z,94621.31
2023-11-05T04:09:06.944Z,94622.44
2023-11-05T04:12:13.537Z,94617.22
2023-11-05T04:15:17.012Z,94615.44
2023-11-05T04:18:20.843Z,94603.47
2023-11-05T04:21:24.623Z,94597.00
2023-11-05T04:24:28.029Z,94579.84
2023-11-05T04:27:32.868Z,94582.78
2023-11-05T04:30:36.467Z,94589.72
2023-11-05T04:34:49.553Z,94574.78
2023-11-05T04:37:53.528Z,94570.78
2023-11-05T04:40:57.089Z,94571.13
2023-11-05T04:44:00.652Z,94569.81
2023-11-05T04:47:04.583Z,94565.97
2023-11-05T04:50:11.112Z,94564.84
2023-11-05T04:53:14.711Z,94560.13
2023-11-05T04:56:18.222Z,94551.28
2023-11-05T04:59:21.821Z,94551.91
2023-11-05T05:02:25.401Z,94554.34
2023-11-05T05:05:30.585Z,94547.91
2023-11-05T05:08:34.842Z,94551.75
2023-11-05T05:11:38.429Z,94553.97
2023-11-05T05:14:44.313Z,94557.53
2023-11-05T05:17:48.483Z,94551.75
2023-11-05T05:20:54.199Z,94554.94
2023-11-05T05:23:57.665Z,94549.13
2023-11-05T05:27:01.232Z,94549.66
2023-11-05T05:30:05.388Z,94549.94
2023-11-05T05:33:10.918Z,94551.88
2023-11-05T05:36:16.544Z,94546.84
2023-11-05T05:39:20.126Z,94550.09
2023-11-05T05:42:23.622Z,94554.44
2023-11-05T05:45:27.281Z,94546.84
2023-11-05T05:48:30.922Z,94540.56
2023-11-05T05:51:35.879Z,94548.81
2023-11-05T05:54:42.658Z,94541.91
2023-11-05T05:57:46.135Z,94516.81
2023-11-05T06:00:50.386Z,94555.22
2023-11-05T06:03:54.187Z,94553.28
2023-11-05T06:06:59.213Z,94555.06
2023-11-05T06:10:03.639Z,94560.38
2023-11-05T06:13:07.565Z,94559.38
2023-11-05T06:16:11.381Z,94571.22
2023-11-05T06:19:14.921Z,94558.66
2023-11-05T06:22:20.610Z,94561.28
2023-11-05T06:25:24.610Z,94559.72
2023-11-05T06:28:28.178Z,94566.88
2023-11-05T06:31:31.894Z,94562.38
2023-11-05T06:34:35.601Z,94554.91
2023-11-05T06:37:41.285Z,94573.91
2023-11-05T06:40:44.981Z,94585.88
2023-11-05T06:43:48.625Z,94586.78
2023-11-05T06:46:54.197Z,94574.50
2023-11-05T06:49:57.946Z,94576.31
2023-11-05T06:53:03.276Z,94579.72
2023-11-05T06:56:07.651Z,94580.44
2023-11-05T06:59:13.569Z,94581.56
2023-11-05T07:02:34.387Z,94580.97
2023-11-05T07:05:54.294Z,94585.69
2023-11-05T07:09:14.034Z,94576.28
2023-11-05T07:13:09.705Z,94531.06
2023-11-05T07:17:17.426Z,94579.06
2023-11-05T07:20:47.214Z,94582.78
2023-11-05T07:24:28.488Z,94516.84
2023-11-05T07:27:54.685Z,94583.75
2023-11-05T07:31:13.598Z,94587.81
2023-11-05T07:38:55.091Z,94591.50
2023-11-05T07:42:54.247Z,94613.88
2023-11-05T07:46:45.655Z,94601.59
2023-11-05T07:49:57.226Z,94587.13
2023-11-05T07:54:14.551Z,94612.91
2023-11-05T08:02:16.934Z,94604.31
2023-11-05T08:05:54.256Z,94611.44
2023-11-05T08:28:50.704Z,94547.63
2023-11-05T08:37:08.030Z,94633.66
2023-11-05T08:40:15.176Z,94638.22
2023-11-05T08:43:19.381Z,94638.69
2023-11-05T08:46:22.890Z,94636.25
2023-11-05T08:49:26.900Z,94638.69
2023-11-05T08:52:32.690Z,94633.84
2023-11-05T08:55:38.849Z,94638.84
2023-11-05T08:58:43.539Z,94644.69
2023-11-05T09:01:47.340Z,94633.31
2023-11-05T09:04:51.695Z,94639.81
2023-11-05T09:07:57.118Z,94651.66
2023-11-05T09:11:02.033Z,94657.19
2023-11-05T09:14:06.895Z,94659.44
2023-11-05T09:17:10.607Z,94658.63
2023-11-05T09:20:14.823Z,94652.09
2023-11-05T09:23:18.477Z,94655.81
2023-11-05T09:26:24.586Z,94665.19
2023-11-05T09:29:28.430Z,94659.91
2023-11-05T09:32:32.118Z,94660.69
2023-11-05T09:35:36.001Z,94651.22
2023-11-05T09:38:39.717Z,94678.09
2023-11-05T09:41:51.462Z,94677.31
2023-11-05T09:44:55.187Z,94697.69
2023-11-05T09:47:59.338Z,94693.31
2023-11-05T09:51:03.968Z,94704.09
2023-11-05T09:54:08.807Z,94716.94
2023-11-05T09:57:13.771Z,94722.47
2023-11-05T10:00:18.333Z,94729.25
2023-11-05T10:03:23.067Z,94734.59
2023-11-05T10:06:26.568Z,94715.28
2023-11-05T10:09:30.227Z,94745.78
2023-11-05T10:12:35.260Z,94762.03
2023-11-05T10:15:39.620Z,94769.72
2023-11-05T10:18:45.150Z,94766.16
2023-11-05T10:21:48.776Z,94776.72
2023-11-05T10:24:53.560Z,94780.63
2023-11-05T10:27:59.395Z,94785.16
2023-11-05T10:34:50.470Z,94785.34
2023-11-05T10:37:53.977Z,94795.22
2023-11-05T10:40:58.280Z,94783.47
2023-11-05T10:44:03.917Z,94792.69
2023-11-05T10:47:09.037Z,94795.44
2023-11-05T10:50:16.768Z,94798.22
2023-11-05T10:53:21.699Z,94814.63
2023-11-05T10:56:33.975Z,94819.66
2023-11-05T10:59:39.211Z,94828.91
2023-11-05T11:02:51.300Z,94809.28
2023-11-05T11:06:06.340Z,94831.56
2023-11-05T11:09:23.247Z,94841.16
2023-11-05T11:12:33.603Z,94855.44
2023-11-05T11:15:38.644Z,94855.44
2023-11-05T11:18:44.905Z,94860.66
2023-11-05T11:22:03.108Z,94868.47
2023-11-05T11:25:08.759Z,94886.97
2023-11-05T11:28:12.436Z,94902.69
2023-11-05T11:31:16.088Z,94897.84
2023-11-05T11:34:21.972Z,94916.66
2023-11-05T11:37:26.852Z,94915.03
2023-11-05T11:40:30.571Z,94913.25
2023-11-05T11:43:34.361Z,94913.75
2023-11-05T11:46:38.375Z,94904.81
2023-11-05T11:49:42.982Z,94917.81
2023-11-05T11:52:49.811Z,94936.34
2023-11-05T11:55:54.013Z,94931.94
2023-11-05T11:59:04.085Z,94932.94
2023-11-05T12:02:45.881Z,94939.91
2023-11-05T12:06:52.019Z,94911.50
2023-11-05T12:10:29.379Z,94953.19
2023-11-05T12:13:33.826Z,94968.50
2023-11-05T12:16:37.597Z,94948.59
2023-11-05T12:19:43.267Z,94958.66
2023-11-05T12:22:47.445Z,94971.50
2023-11-05T12:25:59.128Z,94978.03
2023-11-05T12:29:03.744Z,94991.56
2023-11-05T12:32:08.834Z,94994.97
2023-11-05T12:35:12.778Z,95009.44
2023-11-05T12:38:16.931Z,94999.38
2023-11-05T12:41:22.740Z,95008.63
2023-11-05T12:44:26.802Z,95015.16
2023-11-05T12:47:30.479Z,95016.59
2023-11-05T12:50:34.196Z,95022.63
2023-11-05T12:53:40.053Z,95032.53
2023-11-05T12:56:51.741Z,95042.75
2023-11-05T12:59:55.244Z,95048.44
2023-11-05T13:02:59.049Z,95059.63
2023-11-05T13:06:03.091Z,95057.06
2023-11-05T13:09:07.053Z,95053.63
2023-11-05T13:12:12.041Z,95069.22
2023-11-05T13:15:15.836Z,95067.25
2023-11-05T13:18:22.743Z,95066.41
2023-11-05T13:21:29.796Z,95080.72
2023-11-05T13:24:33.948Z,95088.50
2023-11-05T13:27:39.529Z,95092.41
2023-11-05T13:30:43.733Z,95097.94
2023-11-05T13:33:47.346Z,95111.41
2023-11-05T13:36:50.958Z,95128.13
2023-11-05T13:39:57.101Z,95141.09
2023-11-05T13:43:02.298Z,95131.22
2023-11-05T13:46:06.156Z,95136.94
2023-11-05T13:49:09.995Z,95133.34
2023-11-05T13:52:13.558Z,95138.84
2023-11-05T13:55:17.079Z,95137.88
2023-11-05T13:58:22.215Z,95140.53
2023-11-05T14:01:30.863Z,95161.34
2023-11-05T14:11:36.945Z,95177.97
2023-11-05T14:14:42.500Z,95188.22
2023-11-05T14:22:30.788Z,95113.41
2023-11-05T14:25:34.434Z,95197.41
2023-11-05T14:28:45.457Z,95216.56
2023-11-05T14:32:09.041Z,95227.28
2023-11-05T14:35:21.615Z,95230.84
2023-11-05T14:38:31.510Z,95221.06
2023-11-05T14:41:39.111Z,95233.59
2023-11-05T14:44:43.899Z,95244.97
2023-11-05T14:47:49.270Z,95248.69
2023-11-05T14:50:59.519Z,95247.03
2023-11-05T14:54:12.564Z,95270.78
2023-11-05T14:57:27.770Z,95277.13
2023-11-05T15:00:34.445Z,95274.16
2023-11-05T15:03:41.048Z,95276.75
2023-11-05T15:06:46.058Z,95280.91
2023-11-05T15:09:51.088Z,95294.41
2023-11-05T15:12:54.673Z,95313.19
2023-11-05T15:15:58.445Z,95333.19
2023-11-05T15:19:15.480Z,95345.78
2023-11-05T15:22:19.614Z,95350.97
2023-11-05T15:25:23.889Z,95362.13
2023-11-05T15:28:29.375Z,95370.69
2023-11-05T15:31:34.323Z,95368.91
2023-11-05T15:34:40.117Z,95382.97
2023-11-05T15:37:44.195Z,95399.69
2023-11-05T15:40:48.312Z,95417.03
2023-11-05T15:43:52.491Z,95411.69
2023-11-05T15:46:56.397Z,95392.78
2023-11-05T15:50:01.461Z,95417.59
2023-11-05T15:53:05.526Z,95440.66
2023-11-05T15:56:09.558Z,95444.63
2023-11-05T15:59:15.162Z,95456.50
2023-11-05T16:02:18.716Z,95464.13
2023-11-05T16:05:23.704Z,95481.72
2023-11-05T16:08:27.567Z,95486.78
2023-11-05T16:11:31.095Z,95496.19
2023-11-05T16:14:35.131Z,95499.19
2023-11-05T16:17:38.740Z,95508.44
2023-11-05T16:20:43.710Z,95500.00
2023-11-05T16:23:47.535Z,95506.81
2023-11-05T16:26:51.574Z,95518.41
2023-11-05T16:29:55.668Z,95524.03
2023-11-05T16:34:49.154Z,95518.28
2023-11-05T16:37:53.929Z,95531.66
2023-11-05T16:40:57.901Z,95545.00
2023-11-05T16:44:02.793Z,95555.22
2023-11-05T16:47:11.550Z,95568.31
2023-11-05T16:50:18.248Z,95579.63
2023-11-05T16:53:21.993Z,95593.19
2023-11-05T16:56:25.509Z,95569.09
2023-11-05T16:59:29.112Z,95595.84
2023-11-05T17:02:32.788Z,95606.97
2023-11-05T17:05:37.765Z,95630.41
2023-11-05T17:08:41.457Z,95654.09
2023-11-05T17:11:50.315Z,95653.56
2023-11-05T17:14:54.565Z,95662.44
2023-11-05T17:17:58.265Z,95663.78
2023-11-05T17:21:06.117Z,95676.88
2023-11-05T17:24:10.022Z,95688.84
2023-11-05T17:27:13.590Z,95691.03
2023-11-05T17:30:19.929Z,95705.00
2023-11-05T17:33:29.839Z,95736.03
2023-11-05T17:36:34.894Z,95738.16
2023-11-05T17:39:38.429Z,95748.78
2023-11-05T17:42:42.511Z,95754.56
2023-11-05T17:45:46.109Z,95758.06
2023-11-05T17:48:50.052Z,95769.38
2023-11-05T17:51:55.280Z,95773.38
2023-11-05T17:54:58.820Z,95789.44
2023-11-05T17:58:02.368Z,95797.56
2023-11-05T18:01:05.963Z,95806.00
2023-11-05T18:04:09.662Z,95803.16
2023-11-05T18:07:14.742Z,95811.63
2023-11-05T18:10:18.521Z,95835.50
2023-11-05T18:13:22.285Z,95827.75
2023-11-05T18:16:25.750Z,95843.50
2023-11-05T18:19:29.309Z,95848.81
2023-11-05T18:22:35.832Z,95852.72
2023-11-05T18:25:39.397Z,95872.00
2023-11-05T18:28:45.318Z,95875.56
2023-11-05T18:31:48.834Z,95887.81
2023-11-05T18:34:52.852Z,95894.75
2023-11-05T18:38:05.374Z,95915.69
2023-11-05T18:41:13.938Z,95926.50
2023-11-05T18:44:21.701Z,95914.06
2023-11-05T18:47:25.486Z,95945.13
2023-11-05T18:50:29.328Z,95966.53
2023-11-05T18:53:35.279Z,95944.19
2023-11-05T18:56:38.781Z,95993.56
2023-11-05T18:59:42.386Z,96005.09
2023-11-05T19:02:46.368Z,96009.94
2023-11-05T19:05:53.120Z,96016.25
2023-11-05T19:08:58.663Z,96028.13
2023-11-05T19:12:03.635Z,96034.50
2023-11-05T19:15:08.324Z,96043.34
2023-11-05T19:18:12.560Z,96048.16
2023-11-05T19:21:16.139Z,96063.47
2023-11-05T19:24:21.129Z,96062.53
2023-11-05T19:27:24.877Z,96067.69
2023-11-05T19:30:28.399Z,96083.22
2023-11-05T19:33:32.424Z,96101.44
2023-11-05T19:36:36.188Z,96111.09
2023-11-05T19:39:41.048Z,96108.38
2023-11-05T19:42:44.890Z,96117.22
2023-11-05T19:45:49.068Z,96126.75
2023-11-05T19:48:52.774Z,96126.75
2023-11-05T19:51:56.682Z,96144.41
2023-11-05T19:55:01.654Z,96149.34
2023-11-05T19:58:05.955Z,96159.19
2023-11-05T20:01:09.805Z,96170.88
2023-11-05T20:04:14.668Z,96180.84
2023-11-05T20:07:18.372Z,96186.38
2023-11-05T20:10:23.373Z,96198.50
2023-11-05T20:13:27.252Z,96204.81
2023-11-05T20:16:30.799Z,96213.53
2023-11-05T20:19:34.568Z,96220.03
2023-11-05T20:22:38.163Z,96212.25
2023-11-05T20:25:43.019Z,96230.50
2023-11-05T20:28:50.796Z,96229.06
2023-11-05T20:31:54.964Z,96233.53
2023-11-05T20:34:58.633Z,96241.97
2023-11-05T20:38:02.214Z,96250.41
2023-11-05T20:41:07.273Z,96254.69
2023-11-05T20:44:10.931Z,96262.75
2023-11-05T20:47:14.535Z,96277.06
2023-11-05T20:50:18.189Z,96284.34
2023-11-05T20:53:21.793Z,96285.84
2023-11-05T20:56:26.786Z,96294.19
2023-11-05T20:59:30.411Z,96304.66
2023-11-05T21:02:34.375Z,96319.88
2023-11-05T21:05:38.296Z,96322.47
2023-11-05T21:08:42.538Z,96329.72
2023-11-05T21:11:51.479Z,96331.53
2023-11-05T21:14:55.027Z,96348.38
2023-11-05T21:17:58.571Z,96339.94
2023-11-05T21:21:02.147Z,96358.31
2023-11-05T21:24:05.884Z,96366.47
2023-11-05T21:27:10.947Z,96372.47
2023-11-05T21:30:14.952Z,96372.81
2023-11-05T21:33:18.888Z,96385.22
2023-11-05T21:36:22.707Z,96374.38
2023-11-05T21:39:26.228Z,96391.13
2023-11-05T21:42:31.083Z,96397.81
2023-11-05T21:45:34.525Z,96405.28
2023-11-05T21:48:38.295Z,96404.97
2023-11-05T21:51:42.005Z,96405.88
2023-11-05T21:54:45.852Z,96413.44
2023-11-05T21:57:50.807Z,96415.81
2023-11-05T22:00:54.654Z,96399.47
2023-11-05T22:03:58.438Z,96415.91
2023-11-05T22:07:02.485Z,96410.66
2023-11-05T22:10:07.713Z,96420.69
2023-11-05T22:13:12.939Z,96410.53
2023-11-05T22:16:16.636Z,96417.06
2023-11-05T22:19:20.133Z,96432.25
2023-11-05T22:22:24.828Z,96431.03
2023-11-05T22:25:28.499Z,96433.00
2023-11-05T22:28:34.006Z,96419.75
2023-11-05T22:34:50.828Z,96447.13
2023-11-05T22:37:55.326Z,96452.63
2023-11-05T22:40:58.902Z,96457.69
2023-11-05T22:44:02.495Z,96463.28
2023-11-05T22:47:06.307Z,96455.94
2023-11-05T22:50:11.921Z,96472.81
2023-11-05T22:53:15.512Z,96466.06
2023-11-05T22:56:19.189Z,96474.25
2023-11-05T22:59:22.987Z,96475.56
2023-11-05T23:02:26.735Z,96473.31
2023-11-05T23:05:31.723Z,96471.03
2023-11-05T23:08:35.282Z,96474.13
2023-11-05T23:11:38.789Z,96478.06
2023-11-05T23:14:42.379Z,96474.97
2023-11-05T23:17:46.030Z,96479.91
2023-11-05T23:20:51.266Z,96492.13
2023-11-05T23:23:54.929Z,96499.06
2023-11-05T23:26:58.392Z,96494.59
2023-11-05T23:30:02.051Z,96502.34
2023-11-05T23:33:05.892Z,96499.59
2023-11-05T23:36:11.789Z,96504.13
2023-11-05T23:39:15.267Z,96496.78
2023-11-05T23:42:18.853Z,96498.13
2023-11-05T23:45:22.407Z,96505.16
2023-11-05T23:48:26.250Z,96489.31
2023-11-05T23:51:31.148Z,96512.81
2023-11-05T23:54:34.645Z,96522.75
2023-11-05T23:57:38.152Z,96515.28
